sensor_id;sensor_type;location;lat;lon;timestamp;temperature;humidity
47540;DHT22;33280;52.152;21.052;2022-12-24T00:00:42;6.40;99.90
47540;DHT22;33280;52.152;21.052;2022-12-24T00:03:09;6.30;99.90
47540;DHT22;33280;52.152;21.052;2022-12-24T00:05:37;6.30;99.90
47540;DHT22;33280;52.152;21.052;2022-12-24T00:08:04;6.20;99.90
47540;DHT22;33280;52.152;21.052;2022-12-24T00:10:32;6.20;99.90
47540;DHT22;33280;52.152;21.052;2022-12-24T00:12:59;6.20;99.90
47540;DHT22;33280;52.152;21.052;2022-12-24T00:15:29;6.20;99.90
47540;DHT22;33280;52.152;21.052;2022-12-24T00:17:59;6.20;99.90
47540;DHT22;33280;52.152;21.052;2022-12-24T00:20:26;6.20;99.90
47540;DHT22;33280;52.152;21.052;2022-12-24T00:22:54;6.30;99.90
47540;DHT22;33280;52.152;21.052;2022-12-24T00:25:22;6.30;99.90
47540;DHT22;33280;52.152;21.052;2022-12-24T00:27:49;6.30;99.90
47540;DHT22;33280;52.152;21.052;2022-12-24T00:30:17;6.40;99.90
47540;DHT22;33280;52.152;21.052;2022-12-24T00:32:56;6.40;99.90
47540;DHT22;33280;52.152;21.052;2022-12-24T00:35:38;6.50;99.90
47540;DHT22;33280;52.152;21.052;2022-12-24T00:38:12;6.60;99.90
47540;DHT22;33280;52.152;21.052;2022-12-24T00:40:40;6.80;99.90
47540;DHT22;33280;52.152;21.052;2022-12-24T00:43:07;6.90;99.90
47540;DHT22;33280;52.152;21.052;2022-12-24T00:45:34;6.90;99.90
47540;DHT22;33280;52.152;21.052;2022-12-24T00:48:01;6.80;99.90
47540;DHT22;33280;52.152;21.052;2022-12-24T00:50:34;6.80;99.90
47540;DHT22;33280;52.152;21.052;2022-12-24T00:53:01;6.80;99.90
47540;DHT22;33280;52.152;21.052;2022-12-24T00:55:29;6.60;99.90
47540;DHT22;33280;52.152;21.052;2022-12-24T00:58:01;6.60;99.90
47540;DHT22;33280;52.152;21.052;2022-12-24T01:00:28;6.70;99.90
47540;DHT22;33280;52.152;21.052;2022-12-24T01:03:03;6.80;99.90
47540;DHT22;33280;52.152;21.052;2022-12-24T01:05:34;6.90;99.90
47540;DHT22;33280;52.152;21.052;2022-12-24T01:08:04;6.90;99.90
47540;DHT22;33280;52.152;21.052;2022-12-24T01:10:37;7.00;99.90
47540;DHT22;33280;52.152;21.052;2022-12-24T01:13:10;7.00;99.90
47540;DHT22;33280;52.152;21.052;2022-12-24T01:15:59;6.90;99.90
47540;DHT22;33280;52.152;21.052;2022-12-24T01:18:46;6.90;99.90
47540;DHT22;33280;52.152;21.052;2022-12-24T01:21:14;6.90;99.90
47540;DHT22;33280;52.152;21.052;2022-12-24T01:23:58;6.80;99.90
47540;DHT22;33280;52.152;21.052;2022-12-24T01:26:28;6.80;99.90
47540;DHT22;33280;52.152;21.052;2022-12-24T01:28:55;6.80;99.90
47540;DHT22;33280;52.152;21.052;2022-12-24T01:31:36;6.80;99.90
47540;DHT22;33280;52.152;21.052;2022-12-24T01:34:03;6.70;99.90
47540;DHT22;33280;52.152;21.052;2022-12-24T01:36:30;6.70;99.90
47540;DHT22;33280;52.152;21.052;2022-12-24T01:39:07;6.70;99.90
47540;DHT22;33280;52.152;21.052;2022-12-24T01:41:41;6.80;99.90
47540;DHT22;33280;52.152;21.052;2022-12-24T01:44:43;6.80;99.90
47540;DHT22;33280;52.152;21.052;2022-12-24T01:47:27;6.90;99.90
47540;DHT22;33280;52.152;21.052;2022-12-24T01:52:58;6.80;99.90
47540;DHT22;33280;52.152;21.052;2022-12-24T01:55:39;6.80;99.90
47540;DHT22;33280;52.152;21.052;2022-12-24T01:58:25;6.70;99.90
47540;DHT22;33280;52.152;21.052;2022-12-24T02:00:56;6.60;99.90
47540;DHT22;33280;52.152;21.052;2022-12-24T02:03:28;6.70;99.90
47540;DHT22;33280;52.152;21.052;2022-12-24T02:05:57;6.80;99.90
47540;DHT22;33280;52.152;21.052;2022-12-24T02:08:29;6.80;99.90
47540;DHT22;33280;52.152;21.052;2022-12-24T02:11:14;6.80;99.90
47540;DHT22;33280;52.152;21.052;2022-12-24T02:13:57;6.90;99.90
47540;DHT22;33280;52.152;21.052;2022-12-24T02:16:41;7.00;99.90
47540;DHT22;33280;52.152;21.052;2022-12-24T02:32:31;6.90;99.90
47540;DHT22;33280;52.152;21.052;2022-12-24T02:35:37;7.00;99.90
47540;DHT22;33280;52.152;21.052;2022-12-24T02:38:17;6.90;99.90
47540;DHT22;33280;52.152;21.052;2022-12-24T02:48:23;6.80;99.90
47540;DHT22;33280;52.152;21.052;2022-12-24T02:51:03;6.70;99.90
47540;DHT22;33280;52.152;21.052;2022-12-24T02:57:18;6.80;99.90
47540;DHT22;33280;52.152;21.052;2022-12-24T03:00:06;6.70;99.90
47540;DHT22;33280;52.152;21.052;2022-12-24T03:05:49;6.70;99.90
47540;DHT22;33280;52.152;21.052;2022-12-24T03:11:11;6.60;99.90
47540;DHT22;33280;52.152;21.052;2022-12-24T03:13:44;6.60;99.90
47540;DHT22;33280;52.152;21.052;2022-12-24T03:16:20;6.60;99.90
47540;DHT22;33280;52.152;21.052;2022-12-24T03:18:52;6.60;99.90
47540;DHT22;33280;52.152;21.052;2022-12-24T03:23:53;6.60;99.90
47540;DHT22;33280;52.152;21.052;2022-12-24T03:26:20;6.50;99.90
47540;DHT22;33280;52.152;21.052;2022-12-24T03:28:51;6.50;99.90
47540;DHT22;33280;52.152;21.052;2022-12-24T03:31:18;6.40;99.90
47540;DHT22;33280;52.152;21.052;2022-12-24T03:33:49;6.40;99.90
47540;DHT22;33280;52.152;21.052;2022-12-24T03:36:16;6.40;99.90
47540;DHT22;33280;52.152;21.052;2022-12-24T03:38:44;6.40;99.90
47540;DHT22;33280;52.152;21.052;2022-12-24T03:41:11;6.40;99.90
47540;DHT22;33280;52.152;21.052;2022-12-24T03:43:38;6.50;99.90
47540;DHT22;33280;52.152;21.052;2022-12-24T03:46:06;6.50;99.90
47540;DHT22;33280;52.152;21.052;2022-12-24T03:48:34;6.50;99.90
47540;DHT22;33280;52.152;21.052;2022-12-24T03:51:02;6.40;99.90
47540;DHT22;33280;52.152;21.052;2022-12-24T03:53:31;6.40;99.90
47540;DHT22;33280;52.152;21.052;2022-12-24T03:55:58;6.40;99.90
47540;DHT22;33280;52.152;21.052;2022-12-24T03:58:25;6.40;99.90
47540;DHT22;33280;52.152;21.052;2022-12-24T04:00:55;6.40;99.90
47540;DHT22;33280;52.152;21.052;2022-12-24T04:03:22;6.30;99.90
47540;DHT22;33280;52.152;21.052;2022-12-24T04:06:09;6.30;99.90
47540;DHT22;33280;52.152;21.052;2022-12-24T04:08:40;6.30;99.90
47540;DHT22;33280;52.152;21.052;2022-12-24T04:11:09;6.30;99.90
47540;DHT22;33280;52.152;21.052;2022-12-24T04:13:37;6.20;99.90
47540;DHT22;33280;52.152;21.052;2022-12-24T04:16:07;6.20;99.90
47540;DHT22;33280;52.152;21.052;2022-12-24T04:18:36;6.20;99.90
47540;DHT22;33280;52.152;21.052;2022-12-24T04:21:05;6.20;99.90
47540;DHT22;33280;52.152;21.052;2022-12-24T04:23:35;6.20;99.90
47540;DHT22;33280;52.152;21.052;2022-12-24T04:26:04;6.20;99.90
47540;DHT22;33280;52.152;21.052;2022-12-24T04:28:34;6.20;99.90
47540;DHT22;33280;52.152;21.052;2022-12-24T04:31:04;6.10;99.90
47540;DHT22;33280;52.152;21.052;2022-12-24T04:33:32;6.10;99.90
47540;DHT22;33280;52.152;21.052;2022-12-24T04:36:01;6.20;99.90
47540;DHT22;33280;52.152;21.052;2022-12-24T04:38:29;6.10;99.90
47540;DHT22;33280;52.152;21.052;2022-12-24T04:41:02;6.10;99.90
47540;DHT22;33280;52.152;21.052;2022-12-24T04:43:30;6.10;99.90
47540;DHT22;33280;52.152;21.052;2022-12-24T04:46:11;6.10;99.90
47540;DHT22;33280;52.152;21.052;2022-12-24T04:48:45;6.10;99.90
47540;DHT22;33280;52.152;21.052;2022-12-24T04:51:13;6.10;99.90
47540;DHT22;33280;52.152;21.052;2022-12-24T04:53:43;6.10;99.90
47540;DHT22;33280;52.152;21.052;2022-12-24T04:56:12;6.10;99.90
47540;DHT22;33280;52.152;21.052;2022-12-24T04:58:40;6.10;99.90
47540;DHT22;33280;52.152;21.052;2022-12-24T05:01:14;6.00;99.90
47540;DHT22;33280;52.152;21.052;2022-12-24T05:03:41;6.00;99.90
47540;DHT22;33280;52.152;21.052;2022-12-24T05:06:15;6.00;99.90
47540;DHT22;33280;52.152;21.052;2022-12-24T05:08:45;6.00;99.90
47540;DHT22;33280;52.152;21.052;2022-12-24T05:11:13;6.00;99.90
47540;DHT22;33280;52.152;21.052;2022-12-24T05:13:42;6.00;99.90
47540;DHT22;33280;52.152;21.052;2022-12-24T05:16:15;6.10;99.90
47540;DHT22;33280;52.152;21.052;2022-12-24T05:18:43;6.10;99.90
47540;DHT22;33280;52.152;21.052;2022-12-24T05:21:18;6.10;99.90
47540;DHT22;33280;52.152;21.052;2022-12-24T05:23:50;6.00;99.90
47540;DHT22;33280;52.152;21.052;2022-12-24T05:26:47;6.00;99.90
47540;DHT22;33280;52.152;21.052;2022-12-24T05:29:15;6.00;99.90
47540;DHT22;33280;52.152;21.052;2022-12-24T05:31:43;5.90;99.90
47540;DHT22;33280;52.152;21.052;2022-12-24T05:34:12;5.90;99.90
47540;DHT22;33280;52.152;21.052;2022-12-24T05:36:43;6.00;99.90
47540;DHT22;33280;52.152;21.052;2022-12-24T05:39:15;5.80;99.90
47540;DHT22;33280;52.152;21.052;2022-12-24T05:41:43;5.80;99.90
47540;DHT22;33280;52.152;21.052;2022-12-24T05:44:10;5.70;99.90
47540;DHT22;33280;52.152;21.052;2022-12-24T05:46:37;5.70;99.90
47540;DHT22;33280;52.152;21.052;2022-12-24T05:49:05;5.70;99.90
47540;DHT22;33280;52.152;21.052;2022-12-24T05:51:32;5.60;99.90
47540;DHT22;33280;52.152;21.052;2022-12-24T05:53:59;5.60;99.90
47540;DHT22;33280;52.152;21.052;2022-12-24T05:56:26;5.70;99.90
47540;DHT22;33280;52.152;21.052;2022-12-24T05:58:54;5.60;99.90
47540;DHT22;33280;52.152;21.052;2022-12-24T06:01:21;5.60;99.90
47540;DHT22;33280;52.152;21.052;2022-12-24T06:03:50;5.60;99.90
47540;DHT22;33280;52.152;21.052;2022-12-24T06:06:23;5.70;99.90
47540;DHT22;33280;52.152;21.052;2022-12-24T06:08:52;5.70;99.90
47540;DHT22;33280;52.152;21.052;2022-12-24T06:11:22;5.70;99.90
47540;DHT22;33280;52.152;21.052;2022-12-24T06:13:51;5.70;99.90
47540;DHT22;33280;52.152;21.052;2022-12-24T06:16:19;5.70;99.90
47540;DHT22;33280;52.152;21.052;2022-12-24T06:18:47;5.70;99.90
47540;DHT22;33280;52.152;21.052;2022-12-24T06:21:15;5.70;99.90
47540;DHT22;33280;52.152;21.052;2022-12-24T06:23:43;5.60;99.90
47540;DHT22;33280;52.152;21.052;2022-12-24T06:26:16;5.70;99.90
47540;DHT22;33280;52.152;21.052;2022-12-24T06:28:47;5.60;99.90
47540;DHT22;33280;52.152;21.052;2022-12-24T06:31:18;5.60;99.90
47540;DHT22;33280;52.152;21.052;2022-12-24T06:33:47;5.70;99.90
47540;DHT22;33280;52.152;21.052;2022-12-24T06:36:17;5.60;99.90
47540;DHT22;33280;52.152;21.052;2022-12-24T06:38:48;5.60;99.90
47540;DHT22;33280;52.152;21.052;2022-12-24T06:41:16;5.60;99.90
47540;DHT22;33280;52.152;21.052;2022-12-24T06:43:48;5.70;99.90
47540;DHT22;33280;52.152;21.052;2022-12-24T06:46:20;5.70;99.90
47540;DHT22;33280;52.152;21.052;2022-12-24T06:48:51;5.70;99.90
47540;DHT22;33280;52.152;21.052;2022-12-24T06:51:18;5.60;99.90
47540;DHT22;33280;52.152;21.052;2022-12-24T06:53:47;5.60;99.90
47540;DHT22;33280;52.152;21.052;2022-12-24T06:56:19;5.70;99.90
47540;DHT22;33280;52.152;21.052;2022-12-24T06:58:47;5.60;99.90
47540;DHT22;33280;52.152;21.052;2022-12-24T07:01:16;5.70;99.90
47540;DHT22;33280;52.152;21.052;2022-12-24T07:03:44;5.70;99.90
47540;DHT22;33280;52.152;21.052;2022-12-24T07:06:27;5.70;99.90
47540;DHT22;33280;52.152;21.052;2022-12-24T07:08:55;5.80;99.90
47540;DHT22;33280;52.152;21.052;2022-12-24T07:11:23;5.80;99.90
47540;DHT22;33280;52.152;21.052;2022-12-24T07:13:50;5.80;99.90
47540;DHT22;33280;52.152;21.052;2022-12-24T07:16:18;5.80;99.90
47540;DHT22;33280;52.152;21.052;2022-12-24T07:18:45;5.70;99.90
47540;DHT22;33280;52.152;21.052;2022-12-24T07:21:12;5.80;99.90
47540;DHT22;33280;52.152;21.052;2022-12-24T07:23:39;5.70;99.90
47540;DHT22;33280;52.152;21.052;2022-12-24T07:26:06;5.70;99.90
47540;DHT22;33280;52.152;21.052;2022-12-24T07:28:34;5.70;99.90
47540;DHT22;33280;52.152;21.052;2022-12-24T07:31:04;5.70;99.90
47540;DHT22;33280;52.152;21.052;2022-12-24T07:33:31;5.80;99.90
47540;DHT22;33280;52.152;21.052;2022-12-24T07:36:04;5.70;99.90
47540;DHT22;33280;52.152;21.052;2022-12-24T07:38:32;5.70;99.90
47540;DHT22;33280;52.152;21.052;2022-12-24T07:41:00;5.70;99.90
47540;DHT22;33280;52.152;21.052;2022-12-24T07:43:27;5.70;99.90
47540;DHT22;33280;52.152;21.052;2022-12-24T07:45:57;5.70;99.90
47540;DHT22;33280;52.152;21.052;2022-12-24T07:48:25;5.70;99.90
47540;DHT22;33280;52.152;21.052;2022-12-24T07:50:53;5.70;99.90
47540;DHT22;33280;52.152;21.052;2022-12-24T07:53:21;5.70;99.90
47540;DHT22;33280;52.152;21.052;2022-12-24T07:55:48;5.70;99.90
47540;DHT22;33280;52.152;21.052;2022-12-24T07:58:15;5.70;99.90
47540;DHT22;33280;52.152;21.052;2022-12-24T08:00:46;5.70;99.90
47540;DHT22;33280;52.152;21.052;2022-12-24T08:03:20;5.70;99.90
47540;DHT22;33280;52.152;21.052;2022-12-24T08:05:48;5.70;99.90
47540;DHT22;33280;52.152;21.052;2022-12-24T08:08:16;5.70;99.90
47540;DHT22;33280;52.152;21.052;2022-12-24T08:10:44;5.70;99.90
47540;DHT22;33280;52.152;21.052;2022-12-24T08:13:12;5.70;99.90
47540;DHT22;33280;52.152;21.052;2022-12-24T08:15:40;5.60;99.90
47540;DHT22;33280;52.152;21.052;2022-12-24T08:18:08;5.70;99.90
47540;DHT22;33280;52.152;21.052;2022-12-24T08:20:39;5.60;99.90
47540;DHT22;33280;52.152;21.052;2022-12-24T08:23:07;5.60;99.90
47540;DHT22;33280;52.152;21.052;2022-12-24T08:25:35;5.50;99.90
47540;DHT22;33280;52.152;21.052;2022-12-24T08:28:03;5.50;99.90
47540;DHT22;33280;52.152;21.052;2022-12-24T08:30:30;5.50;99.90
47540;DHT22;33280;52.152;21.052;2022-12-24T08:32:57;5.50;99.90
47540;DHT22;33280;52.152;21.052;2022-12-24T08:35:24;5.60;99.90
47540;DHT22;33280;52.152;21.052;2022-12-24T08:37:51;5.60;99.90
47540;DHT22;33280;52.152;21.052;2022-12-24T08:40:18;5.60;99.90
47540;DHT22;33280;52.152;21.052;2022-12-24T08:42:45;5.60;99.90
47540;DHT22;33280;52.152;21.052;2022-12-24T08:45:12;5.60;99.90
47540;DHT22;33280;52.152;21.052;2022-12-24T08:47:42;5.60;99.90
47540;DHT22;33280;52.152;21.052;2022-12-24T08:50:10;5.60;99.90
47540;DHT22;33280;52.152;21.052;2022-12-24T08:52:37;5.60;99.90
47540;DHT22;33280;52.152;21.052;2022-12-24T08:55:05;5.60;99.90
47540;DHT22;33280;52.152;21.052;2022-12-24T08:57:35;5.70;99.90
47540;DHT22;33280;52.152;21.052;2022-12-24T09:00:04;5.70;99.90
47540;DHT22;33280;52.152;21.052;2022-12-24T09:02:32;5.60;99.90
47540;DHT22;33280;52.152;21.052;2022-12-24T09:05:03;5.60;99.90
47540;DHT22;33280;52.152;21.052;2022-12-24T09:07:52;5.60;99.90
47540;DHT22;33280;52.152;21.052;2022-12-24T09:10:19;5.60;99.90
47540;DHT22;33280;52.152;21.052;2022-12-24T09:12:49;5.60;99.90
47540;DHT22;33280;52.152;21.052;2022-12-24T09:15:23;5.60;99.90
47540;DHT22;33280;52.152;21.052;2022-12-24T09:17:51;5.70;99.90
47540;DHT22;33280;52.152;21.052;2022-12-24T09:20:20;5.70;99.90
47540;DHT22;33280;52.152;21.052;2022-12-24T09:22:48;5.60;99.90
47540;DHT22;33280;52.152;21.052;2022-12-24T09:25:15;5.70;99.90
47540;DHT22;33280;52.152;21.052;2022-12-24T09:27:45;5.70;99.90
47540;DHT22;33280;52.152;21.052;2022-12-24T09:30:12;5.80;99.90
47540;DHT22;33280;52.152;21.052;2022-12-24T09:32:40;5.80;99.90
47540;DHT22;33280;52.152;21.052;2022-12-24T09:35:11;5.80;99.90
47540;DHT22;33280;52.152;21.052;2022-12-24T09:37:38;5.90;99.90
47540;DHT22;33280;52.152;21.052;2022-12-24T09:40:06;5.90;99.90
47540;DHT22;33280;52.152;21.052;2022-12-24T09:42:53;6.00;99.90
47540;DHT22;33280;52.152;21.052;2022-12-24T09:45:27;6.00;99.90
47540;DHT22;33280;52.152;21.052;2022-12-24T09:48:14;6.00;99.90
47540;DHT22;33280;52.152;21.052;2022-12-24T09:51:10;6.00;99.90
47540;DHT22;33280;52.152;21.052;2022-12-24T09:53:55;6.00;99.90
47540;DHT22;33280;52.152;21.052;2022-12-24T09:56:37;6.10;99.90
47540;DHT22;33280;52.152;21.052;2022-12-24T09:59:55;6.10;99.90
47540;DHT22;33280;52.152;21.052;2022-12-24T10:01:57;6.10;99.90
47540;DHT22;33280;52.152;21.052;2022-12-24T10:04:36;6.00;99.90
47540;DHT22;33280;52.152;21.052;2022-12-24T10:07:35;6.10;99.90
47540;DHT22;33280;52.152;21.052;2022-12-24T10:16:34;6.20;99.90
47540;DHT22;33280;52.152;21.052;2022-12-24T10:19:13;6.20;99.90
47540;DHT22;33280;52.152;21.052;2022-12-24T10:21:59;6.20;99.90
47540;DHT22;33280;52.152;21.052;2022-12-24T10:24:48;6.10;99.90
47540;DHT22;33280;52.152;21.052;2022-12-24T10:27:25;6.10;99.90
47540;DHT22;33280;52.152;21.052;2022-12-24T10:30:02;6.00;99.90
47540;DHT22;33280;52.152;21.052;2022-12-24T10:32:34;6.00;99.90
47540;DHT22;33280;52.152;21.052;2022-12-24T10:37:48;6.10;99.90
47540;DHT22;33280;52.152;21.052;2022-12-24T10:43:19;6.10;99.90
47540;DHT22;33280;52.152;21.052;2022-12-24T10:46:00;6.20;99.90
47540;DHT22;33280;52.152;21.052;2022-12-24T10:48:38;6.10;99.90
47540;DHT22;33280;52.152;21.052;2022-12-24T10:51:48;6.10;99.90
47540;DHT22;33280;52.152;21.052;2022-12-24T10:54:25;6.10;99.90
47540;DHT22;33280;52.152;21.052;2022-12-24T10:57:01;6.10;99.90
47540;DHT22;33280;52.152;21.052;2022-12-24T10:59:48;6.10;99.90
47540;DHT22;33280;52.152;21.052;2022-12-24T11:02:34;6.20;99.90
47540;DHT22;33280;52.152;21.052;2022-12-24T11:05:33;6.20;99.90
47540;DHT22;33280;52.152;21.052;2022-12-24T11:08:19;6.10;99.90
47540;DHT22;33280;52.152;21.052;2022-12-24T11:11:16;6.10;99.90
47540;DHT22;33280;52.152;21.052;2022-12-24T11:13:52;6.10;99.90
47540;DHT22;33280;52.152;21.052;2022-12-24T11:16:32;6.00;99.90
47540;DHT22;33280;52.152;21.052;2022-12-24T11:19:04;6.00;99.90
47540;DHT22;33280;52.152;21.052;2022-12-24T11:21:38;6.00;99.90
47540;DHT22;33280;52.152;21.052;2022-12-24T11:24:27;6.00;99.90
47540;DHT22;33280;52.152;21.052;2022-12-24T11:27:22;5.90;99.90
47540;DHT22;33280;52.152;21.052;2022-12-24T11:29:51;5.90;99.90
47540;DHT22;33280;52.152;21.052;2022-12-24T11:32:20;6.00;99.90
47540;DHT22;33280;52.152;21.052;2022-12-24T11:34:48;5.90;99.90
47540;DHT22;33280;52.152;21.052;2022-12-24T11:37:23;6.00;99.90
47540;DHT22;33280;52.152;21.052;2022-12-24T11:39:56;5.90;99.90
47540;DHT22;33280;52.152;21.052;2022-12-24T11:44:56;5.80;99.90
47540;DHT22;33280;52.152;21.052;2022-12-24T11:47:36;5.70;99.90
47540;DHT22;33280;52.152;21.052;2022-12-24T11:50:34;5.70;99.90
47540;DHT22;33280;52.152;21.052;2022-12-24T11:55:47;5.70;99.90
47540;DHT22;33280;52.152;21.052;2022-12-24T11:58:39;5.70;99.90
47540;DHT22;33280;52.152;21.052;2022-12-24T12:01:23;5.70;99.90
47540;DHT22;33280;52.152;21.052;2022-12-24T12:03:57;5.70;99.90
47540;DHT22;33280;52.152;21.052;2022-12-24T12:06:49;5.70;99.90
47540;DHT22;33280;52.152;21.052;2022-12-24T12:09:37;5.80;99.90
47540;DHT22;33280;52.152;21.052;2022-12-24T12:12:17;5.80;99.90
47540;DHT22;33280;52.152;21.052;2022-12-24T12:14:54;5.80;99.90
47540;DHT22;33280;52.152;21.052;2022-12-24T12:23:10;5.80;99.90
47540;DHT22;33280;52.152;21.052;2022-12-24T12:25:44;5.80;99.90
47540;DHT22;33280;52.152;21.052;2022-12-24T12:28:30;5.80;99.90
47540;DHT22;33280;52.152;21.052;2022-12-24T12:31:09;5.90;99.90
47540;DHT22;33280;52.152;21.052;2022-12-24T12:33:47;5.80;99.90
47540;DHT22;33280;52.152;21.052;2022-12-24T12:36:20;5.80;99.90
47540;DHT22;33280;52.152;21.052;2022-12-24T12:38:52;5.80;99.90
47540;DHT22;33280;52.152;21.052;2022-12-24T12:49:40;5.70;99.90
47540;DHT22;33280;52.152;21.052;2022-12-24T12:58:01;5.70;99.90
47540;DHT22;33280;52.152;21.052;2022-12-24T13:00:36;5.70;99.90
47540;DHT22;33280;52.152;21.052;2022-12-24T13:03:16;5.80;99.90
47540;DHT22;33280;52.152;21.052;2022-12-24T13:09:08;5.80;99.90
47540;DHT22;33280;52.152;21.052;2022-12-24T13:12:17;5.80;99.90
47540;DHT22;33280;52.152;21.052;2022-12-24T13:15:10;5.80;99.90
47540;DHT22;33280;52.152;21.052;2022-12-24T13:23:11;5.80;99.90
47540;DHT22;33280;52.152;21.052;2022-12-24T13:25:41;5.80;99.90
47540;DHT22;33280;52.152;21.052;2022-12-24T13:36:15;5.90;99.90
47540;DHT22;33280;52.152;21.052;2022-12-24T13:38:50;5.90;99.90
47540;DHT22;33280;52.152;21.052;2022-12-24T13:46:52;6.00;99.90
47540;DHT22;33280;52.152;21.052;2022-12-24T13:49:35;5.90;99.90
47540;DHT22;33280;52.152;21.052;2022-12-24T13:54:38;5.90;99.90
47540;DHT22;33280;52.152;21.052;2022-12-24T14:02:54;5.80;99.90
47540;DHT22;33280;52.152;21.052;2022-12-24T14:11:02;5.70;99.90
47540;DHT22;33280;52.152;21.052;2022-12-24T14:16:24;5.80;99.90
47540;DHT22;33280;52.152;21.052;2022-12-24T14:19:12;5.80;99.90
47540;DHT22;33280;52.152;21.052;2022-12-24T14:22:04;5.80;99.90
47540;DHT22;33280;52.152;21.052;2022-12-24T14:24:43;5.80;99.90
47540;DHT22;33280;52.152;21.052;2022-12-24T14:27:44;5.70;99.90
47540;DHT22;33280;52.152;21.052;2022-12-24T14:30:21;5.60;99.90
47540;DHT22;33280;52.152;21.052;2022-12-24T14:32:50;5.60;99.90
47540;DHT22;33280;52.152;21.052;2022-12-24T14:35:20;5.60;99.90
47540;DHT22;33280;52.152;21.052;2022-12-24T14:37:56;5.60;99.90
47540;DHT22;33280;52.152;21.052;2022-12-24T14:40:34;5.60;99.90
47540;DHT22;33280;52.152;21.052;2022-12-24T14:43:10;5.50;99.90
47540;DHT22;33280;52.152;21.052;2022-12-24T14:45:47;5.50;99.90
47540;DHT22;33280;52.152;21.052;2022-12-24T14:50:58;5.40;99.90
47540;DHT22;33280;52.152;21.052;2022-12-24T14:56:25;5.40;99.90
47540;DHT22;33280;52.152;21.052;2022-12-24T14:58:52;5.40;99.90
47540;DHT22;33280;52.152;21.052;2022-12-24T15:04:15;5.30;99.90
47540;DHT22;33280;52.152;21.052;2022-12-24T15:06:50;5.30;99.90
47540;DHT22;33280;52.152;21.052;2022-12-24T15:09:20;5.20;99.90
47540;DHT22;33280;52.152;21.052;2022-12-24T15:11:50;5.20;99.90
47540;DHT22;33280;52.152;21.052;2022-12-24T15:14:20;5.20;99.90
47540;DHT22;33280;52.152;21.052;2022-12-24T15:17:02;5.20;99.90
47540;DHT22;33280;52.152;21.052;2022-12-24T15:19:38;5.20;99.90
47540;DHT22;33280;52.152;21.052;2022-12-24T15:22:22;5.20;99.90
47540;DHT22;33280;52.152;21.052;2022-12-24T15:24:53;5.10;99.90
47540;DHT22;33280;52.152;21.052;2022-12-24T15:27:25;5.00;99.90
47540;DHT22;33280;52.152;21.052;2022-12-24T15:29:56;4.90;99.90
47540;DHT22;33280;52.152;21.052;2022-12-24T15:32:24;5.00;99.90
47540;DHT22;33280;52.152;21.052;2022-12-24T15:34:54;4.90;99.90
47540;DHT22;33280;52.152;21.052;2022-12-24T15:42:23;4.90;99.90
47540;DHT22;33280;52.152;21.052;2022-12-24T15:47:46;4.70;99.90
47540;DHT22;33280;52.152;21.052;2022-12-24T15:50:42;4.60;99.90
47540;DHT22;33280;52.152;21.052;2022-12-24T15:53:35;4.70;99.90
47540;DHT22;33280;52.152;21.052;2022-12-24T15:56:10;4.60;99.90
47540;DHT22;33280;52.152;21.052;2022-12-24T15:58:43;4.80;99.90
47540;DHT22;33280;52.152;21.052;2022-12-24T16:01:35;4.80;99.90
47540;DHT22;33280;52.152;21.052;2022-12-24T16:04:25;4.70;99.90
47540;DHT22;33280;52.152;21.052;2022-12-24T16:06:58;4.60;99.90
47540;DHT22;33280;52.152;21.052;2022-12-24T16:09:43;4.70;99.90
47540;DHT22;33280;52.152;21.052;2022-12-24T16:12:20;4.70;99.90
47540;DHT22;33280;52.152;21.052;2022-12-24T16:14:51;4.80;99.90
47540;DHT22;33280;52.152;21.052;2022-12-24T16:17:28;4.70;99.90
47540;DHT22;33280;52.152;21.052;2022-12-24T16:20:02;4.80;99.90
47540;DHT22;33280;52.152;21.052;2022-12-24T16:22:33;4.80;99.90
47540;DHT22;33280;52.152;21.052;2022-12-24T16:28:10;4.70;99.90
47540;DHT22;33280;52.152;21.052;2022-12-24T16:31:30;4.70;99.90
47540;DHT22;33280;52.152;21.052;2022-12-24T16:34:00;4.60;99.90
47540;DHT22;33280;52.152;21.052;2022-12-24T16:36:29;4.70;99.90
47540;DHT22;33280;52.152;21.052;2022-12-24T16:38:59;4.60;99.90
47540;DHT22;33280;52.152;21.052;2022-12-24T16:41:44;4.60;99.90
47540;DHT22;33280;52.152;21.052;2022-12-24T16:44:30;4.60;99.90
47540;DHT22;33280;52.152;21.052;2022-12-24T16:46:58;4.60;99.90
47540;DHT22;33280;52.152;21.052;2022-12-24T16:49:26;4.60;99.90
47540;DHT22;33280;52.152;21.052;2022-12-24T16:51:54;4.60;99.90
47540;DHT22;33280;52.152;21.052;2022-12-24T16:54:22;4.50;99.90
47540;DHT22;33280;52.152;21.052;2022-12-24T16:56:49;4.50;99.90
47540;DHT22;33280;52.152;21.052;2022-12-24T16:59:20;4.50;99.90
47540;DHT22;33280;52.152;21.052;2022-12-24T17:01:50;4.50;99.90
47540;DHT22;33280;52.152;21.052;2022-12-24T17:04:18;4.60;99.90
47540;DHT22;33280;52.152;21.052;2022-12-24T17:06:47;4.60;99.90
47540;DHT22;33280;52.152;21.052;2022-12-24T17:09:15;4.60;99.90
47540;DHT22;33280;52.152;21.052;2022-12-24T17:11:43;4.60;99.90
47540;DHT22;33280;52.152;21.052;2022-12-24T17:14:11;4.60;99.90
47540;DHT22;33280;52.152;21.052;2022-12-24T17:16:46;4.60;99.90
47540;DHT22;33280;52.152;21.052;2022-12-24T17:19:16;4.50;99.90
47540;DHT22;33280;52.152;21.052;2022-12-24T17:21:44;4.50;99.90
47540;DHT22;33280;52.152;21.052;2022-12-24T17:24:11;4.30;99.90
47540;DHT22;33280;52.152;21.052;2022-12-24T17:26:39;4.40;99.90
47540;DHT22;33280;52.152;21.052;2022-12-24T17:29:08;4.40;99.90
47540;DHT22;33280;52.152;21.052;2022-12-24T17:31:35;4.40;99.90
47540;DHT22;33280;52.152;21.052;2022-12-24T17:34:12;4.40;99.90
47540;DHT22;33280;52.152;21.052;2022-12-24T17:36:41;4.40;99.90
47540;DHT22;33280;52.152;21.052;2022-12-24T17:39:09;4.40;99.90
47540;DHT22;33280;52.152;21.052;2022-12-24T17:41:39;4.40;99.90
47540;DHT22;33280;52.152;21.052;2022-12-24T17:44:14;4.40;99.90
47540;DHT22;33280;52.152;21.052;2022-12-24T17:46:41;4.50;99.90
47540;DHT22;33280;52.152;21.052;2022-12-24T17:49:09;4.40;99.90
47540;DHT22;33280;52.152;21.052;2022-12-24T17:51:37;4.50;99.90
47540;DHT22;33280;52.152;21.052;2022-12-24T17:54:16;4.50;99.90
47540;DHT22;33280;52.152;21.052;2022-12-24T17:56:43;4.40;99.90
47540;DHT22;33280;52.152;21.052;2022-12-24T17:59:20;4.40;99.90
47540;DHT22;33280;52.152;21.052;2022-12-24T18:01:51;4.40;99.90
47540;DHT22;33280;52.152;21.052;2022-12-24T18:04:22;4.40;99.90
47540;DHT22;33280;52.152;21.052;2022-12-24T18:06:56;4.40;99.90
47540;DHT22;33280;52.152;21.052;2022-12-24T18:09:31;4.40;99.90
47540;DHT22;33280;52.152;21.052;2022-12-24T18:11:59;4.50;99.90
47540;DHT22;33280;52.152;21.052;2022-12-24T18:14:29;4.50;99.90
47540;DHT22;33280;52.152;21.052;2022-12-24T18:16:57;4.40;99.90
47540;DHT22;33280;52.152;21.052;2022-12-24T18:19:24;4.50;99.90